Time;durP1;ratioP1;P1;durP2;ratioP2;P2;SDS_P1;SDS_P2;PMS_P1;PMS_P2;Temp;Humidity;BMP_temperature;BMP_pressure;BME280_temperature;BME280_humidity;BME280_pressure;Samples;Min_cycle;Max_cycle;Signal;HPM_P1;HPM_P2
2022/09/11 00:01:02;;;;;;;2.80;2.40;;;;;;;;;;5114395;27;20246;-65
2022/09/11 00:03:30;;;;;;;2.37;1.87;;;;;;;;;;5134735;27;20318;-65
2022/09/11 00:06:01;;;;;;;3.57;2.10;;;;;;;;;;5134240;27;20294;-65
2022/09/11 00:08:30;;;;;;;5.10;4.60;;;;;;;;;;5134786;27;20629;-65
2022/09/11 00:11:24;;;;;;;3.90;1.80;;;;;;;;;;5135381;27;20259;-65
2022/09/11 00:13:53;;;;;;;2.67;2.00;;;;;;;;;;5130245;27;20315;-66
2022/09/11 00:16:22;;;;;;;2.60;1.70;;;;;;;;;;5132278;27;20282;-65
2022/09/11 00:18:50;;;;;;;3.80;1.80;;;;;;;;;;5113963;27;20203;-64
2022/09/11 00:21:18;;;;;;;2.97;1.60;;;;;;;;;;5113582;27;20199;-66
2022/09/11 00:23:47;;;;;;;2.33;1.70;;;;;;;;;;5113446;27;20664;-65
2022/09/11 00:26:18;;;;;;;2.23;1.70;;;;;;;;;;5113392;27;20211;-64
2022/09/11 00:28:46;;;;;;;2.40;1.60;;;;;;;;;;5112166;27;20200;-66
2022/09/11 00:31:15;;;;;;;2.53;1.60;;;;;;;;;;5113402;27;20223;-65
2022/09/11 00:33:43;;;;;;;1.63;1.50;;;;;;;;;;5113105;27;20215;-65
2022/09/11 00:36:12;;;;;;;1.97;1.50;;;;;;;;;;5113373;27;20469;-66
2022/09/11 00:38:39;;;;;;;1.90;1.50;;;;;;;;;;5113049;27;20286;-65
2022/09/11 00:41:10;;;;;;;3.37;1.53;;;;;;;;;;5113042;27;20282;-64
2022/09/11 00:43:51;;;;;;;3.50;1.70;;;;;;;;;;5113103;27;20230;-64
2022/09/11 00:46:19;;;;;;;1.43;1.20;;;;;;;;;;5125745;27;20290;-66
2022/09/11 00:48:48;;;;;;;3.47;1.60;;;;;;;;;;5112758;27;20278;-66
2022/09/11 00:51:24;;;;;;;4.43;1.67;;;;;;;;;;5131145;27;20223;-66
2022/09/11 00:53:54;;;;;;;3.33;1.73;;;;;;;;;;5113412;27;20318;-66
2022/09/11 00:56:22;;;;;;;4.47;1.73;;;;;;;;;;5112910;27;20274;-65
2022/09/11 00:58:51;;;;;;;2.30;1.63;;;;;;;;;;5112658;27;20632;-66
2022/09/11 01:01:18;;;;;;;4.83;1.70;;;;;;;;;;5112739;28;20231;-64
2022/09/11 01:03:46;;;;;;;4.00;1.70;;;;;;;;;;5112412;27;20236;-66
2022/09/11 01:06:13;;;;;;;1.60;1.50;;;;;;;;;;5112245;28;20287;-65
2022/09/11 01:08:40;;;;;;;1.93;1.70;;;;;;;;;;5112653;28;20236;-64
2022/09/11 01:11:35;;;;;;;4.70;1.70;;;;;;;;;;5130299;27;20226;-64
2022/09/11 01:14:15;;;;;;;2.50;1.83;;;;;;;;;;5133001;27;20317;-66
2022/09/11 01:16:52;;;;;;;2.87;1.80;;;;;;;;;;5127672;28;20275;-65
2022/09/11 01:19:38;;;;;;;3.03;1.80;;;;;;;;;;5112830;28;20222;-65
2022/09/11 01:22:05;;;;;;;3.23;1.80;;;;;;;;;;5112089;28;20360;-65
2022/09/11 01:24:32;;;;;;;2.10;1.90;;;;;;;;;;5112275;28;20315;-66
2022/09/11 01:27:06;;;;;;;3.37;1.70;;;;;;;;;;5113046;28;20310;-66
2022/09/11 01:29:37;;;;;;;2.73;1.87;;;;;;;;;;5104169;28;20741;-64
2022/09/11 01:32:17;;;;;;;3.77;1.97;;;;;;;;;;5112756;28;20255;-65
2022/09/11 01:34:52;;;;;;;3.13;1.87;;;;;;;;;;5112803;28;20569;-65
2022/09/11 01:37:23;;;;;;;3.90;2.10;;;;;;;;;;5112667;28;20675;-66
2022/09/11 01:39:54;;;;;;;3.40;2.03;;;;;;;;;;5113129;27;20283;-64
2022/09/11 01:42:22;;;;;;;4.27;2.20;;;;;;;;;;5135123;27;20599;-65
2022/09/11 01:44:54;;;;;;;3.77;2.00;;;;;;;;;;5117334;27;20314;-65
2022/09/11 01:47:22;;;;;;;2.33;1.90;;;;;;;;;;5115020;27;20230;-66
2022/09/11 01:49:49;;;;;;;3.53;1.90;;;;;;;;;;5116083;27;20233;-67
2022/09/11 01:52:18;;;;;;;3.67;2.03;;;;;;;;;;5116237;27;20234;-66
2022/09/11 01:54:48;;;;;;;2.67;1.97;;;;;;;;;;5116151;27;20265;-66
2022/09/11 01:57:36;;;;;;;2.63;2.10;;;;;;;;;;5115960;27;20734;-66
2022/09/11 02:00:06;;;;;;;3.50;2.10;;;;;;;;;;5116046;27;20290;-66
2022/09/11 02:02:36;;;;;;;2.43;1.90;;;;;;;;;;5095652;28;20208;-65
2022/09/11 02:05:22;;;;;;;2.83;2.13;;;;;;;;;;5095151;28;20224;-66
2022/09/11 02:07:52;;;;;;;4.17;2.10;;;;;;;;;;5095947;28;20641;-63
2022/09/11 02:10:25;;;;;;;3.37;2.30;;;;;;;;;;5095388;28;20310;-65
2022/09/11 02:12:57;;;;;;;2.43;1.87;;;;;;;;;;5095223;28;20265;-66
2022/09/11 02:15:30;;;;;;;2.77;2.17;;;;;;;;;;5095613;28;20286;-67
2022/09/11 02:18:08;;;;;;;4.43;2.40;;;;;;;;;;5111241;27;20664;-66
2022/09/11 02:20:35;;;;;;;5.53;2.40;;;;;;;;;;5095478;28;20271;-66
2022/09/11 02:23:03;;;;;;;3.27;2.10;;;;;;;;;;5114423;28;20272;-66
2022/09/11 02:25:30;;;;;;;5.67;2.30;;;;;;;;;;5095303;28;20302;-66
2022/09/11 02:27:58;;;;;;;2.63;2.00;;;;;;;;;;5103673;27;20286;-64
2022/09/11 02:30:25;;;;;;;2.37;1.90;;;;;;;;;;5115349;27;20673;-65
2022/09/11 02:32:54;;;;;;;7.03;2.60;;;;;;;;;;5115536;27;20258;-65
2022/09/11 02:35:24;;;;;;;5.37;2.40;;;;;;;;;;5126466;27;20209;-64
2022/09/11 02:38:00;;;;;;;5.33;2.60;;;;;;;;;;5130505;27;20278;-65
2022/09/11 02:40:31;;;;;;;3.20;2.27;;;;;;;;;;5115674;27;20711;-65
2022/09/11 02:43:17;;;;;;;4.70;2.40;;;;;;;;;;5115592;27;20311;-65
2022/09/11 02:46:02;;;;;;;3.07;2.50;;;;;;;;;;5114946;27;20293;-65
2022/09/11 02:48:30;;;;;;;4.70;2.20;;;;;;;;;;5114005;27;20196;-66
2022/09/11 02:51:01;;;;;;;4.80;2.33;;;;;;;;;;5114874;27;20215;-65
2022/09/11 02:53:49;;;;;;;2.53;2.33;;;;;;;;;;5131553;27;20310;-65
2022/09/11 02:56:23;;;;;;;3.07;2.40;;;;;;;;;;5114645;27;20283;-65
2022/09/11 02:58:57;;;;;;;5.73;2.50;;;;;;;;;;5114611;27;20195;-66
2022/09/11 03:01:24;;;;;;;3.20;2.37;;;;;;;;;;5114897;27;20310;-66
2022/09/11 03:03:52;;;;;;;2.83;2.53;;;;;;;;;;5114647;27;20284;-65
2022/09/11 03:06:21;;;;;;;3.87;2.43;;;;;;;;;;5114840;27;20203;-66
2022/09/11 03:08:48;;;;;;;4.83;2.83;;;;;;;;;;5121702;27;20238;-65
2022/09/11 03:11:16;;;;;;;3.30;2.37;;;;;;;;;;5135339;27;20230;-66
2022/09/11 03:13:44;;;;;;;4.47;2.90;;;;;;;;;;5135585;27;20288;-65
2022/09/11 03:16:11;;;;;;;3.37;2.60;;;;;;;;;;5135199;27;20294;-66
2022/09/11 03:18:39;;;;;;;3.60;3.17;;;;;;;;;;5135398;27;20578;-65
2022/09/11 03:21:06;;;;;;;3.33;2.60;;;;;;;;;;5114643;27;20657;-64
2022/09/11 03:23:34;;;;;;;4.33;2.70;;;;;;;;;;5114441;27;20310;-66
2022/09/11 03:26:01;;;;;;;3.00;2.67;;;;;;;;;;5115183;27;20294;-65
2022/09/11 03:28:29;;;;;;;3.93;2.50;;;;;;;;;;5110462;27;20206;-64
2022/09/11 03:30:58;;;;;;;4.67;3.00;;;;;;;;;;5115989;27;20309;-66
2022/09/11 03:33:25;;;;;;;4.40;2.80;;;;;;;;;;5114444;27;20626;-65
2022/09/11 03:35:52;;;;;;;2.63;2.43;;;;;;;;;;5114391;27;20245;-65
2022/09/11 03:38:19;;;;;;;4.80;3.27;;;;;;;;;;5114718;27;20286;-66
2022/09/11 03:40:47;;;;;;;4.13;2.70;;;;;;;;;;5114502;27;20198;-66
2022/09/11 03:43:15;;;;;;;6.13;2.93;;;;;;;;;;5114922;27;20266;-66
2022/09/11 03:45:43;;;;;;;5.13;2.90;;;;;;;;;;5114096;27;20290;-66
2022/09/11 03:48:14;;;;;;;3.97;2.63;;;;;;;;;;5113885;27;20218;-67
2022/09/11 03:50:41;;;;;;;4.50;2.87;;;;;;;;;;5114553;27;20295;-66
2022/09/11 03:53:09;;;;;;;6.00;2.80;;;;;;;;;;5114313;27;20396;-65
2022/09/11 03:55:37;;;;;;;4.53;2.90;;;;;;;;;;5114465;27;20293;-67
2022/09/11 03:58:06;;;;;;;6.30;3.10;;;;;;;;;;5114142;27;20291;-66
2022/09/11 04:00:34;;;;;;;4.20;2.60;;;;;;;;;;5108448;27;20238;-66
2022/09/11 04:03:02;;;;;;;3.97;2.87;;;;;;;;;;5114219;27;20306;-67
2022/09/11 04:05:29;;;;;;;2.83;2.63;;;;;;;;;;5114067;27;20576;-66
2022/09/11 04:07:56;;;;;;;4.60;2.90;;;;;;;;;;5114048;27;20764;-65
2022/09/11 04:10:24;;;;;;;4.63;2.90;;;;;;;;;;5114421;27;20239;-66
2022/09/11 04:12:52;;;;;;;5.80;5.20;;;;;;;;;;5113772;27;20318;-65
2022/09/11 04:15:19;;;;;;;4.77;3.00;;;;;;;;;;5113861;27;20291;-63
2022/09/11 04:17:47;;;;;;;7.73;3.40;;;;;;;;;;5128022;27;20294;-66
2022/09/11 04:20:14;;;;;;;4.63;2.73;;;;;;;;;;5120567;27;20204;-65
2022/09/11 04:22:42;;;;;;;3.60;2.60;;;;;;;;;;5112983;27;20294;-66
2022/09/11 04:25:10;;;;;;;5.47;2.57;;;;;;;;;;5113678;27;20246;-65
2022/09/11 04:27:37;;;;;;;2.73;2.53;;;;;;;;;;5113151;27;20225;-65
2022/09/11 04:30:05;;;;;;;4.90;2.70;;;;;;;;;;5113274;27;20213;-67
2022/09/11 04:32:33;;;;;;;2.73;2.50;;;;;;;;;;5113351;27;20258;-64
2022/09/11 04:35:00;;;;;;;3.60;2.83;;;;;;;;;;5126195;27;20255;-65
2022/09/11 04:37:28;;;;;;;3.37;2.53;;;;;;;;;;5113444;27;20565;-65
2022/09/11 04:39:56;;;;;;;3.80;2.80;;;;;;;;;;5112935;27;20215;-64
2022/09/11 04:42:23;;;;;;;4.63;2.87;;;;;;;;;;5113496;27;20239;-65
2022/09/11 04:44:50;;;;;;;5.37;3.33;;;;;;;;;;5112857;27;20299;-66
2022/09/11 04:47:17;;;;;;;3.50;3.20;;;;;;;;;;5112664;27;20222;-66
2022/09/11 04:49:45;;;;;;;4.70;2.53;;;;;;;;;;5108619;27;20750;-66
2022/09/11 04:52:14;;;;;;;2.93;2.73;;;;;;;;;;5112950;27;20219;-65
2022/09/11 04:54:41;;;;;;;4.50;2.93;;;;;;;;;;5112921;27;20230;-66
2022/09/11 04:57:08;;;;;;;4.33;3.17;;;;;;;;;;5112440;27;20320;-64
2022/09/11 04:59:36;;;;;;;5.50;2.87;;;;;;;;;;5123312;27;20202;-66
2022/09/11 05:02:03;;;;;;;4.30;3.30;;;;;;;;;;5130022;27;20295;-65
2022/09/11 05:04:30;;;;;;;3.60;3.20;;;;;;;;;;5129355;27;20250;-65
2022/09/11 05:06:58;;;;;;;3.97;3.00;;;;;;;;;;5129353;27;20203;-66
2022/09/11 05:09:26;;;;;;;4.87;3.03;;;;;;;;;;5113499;28;20302;-64
2022/09/11 05:11:55;;;;;;;5.27;3.60;;;;;;;;;;5113097;28;20589;-65
2022/09/11 05:14:24;;;;;;;4.83;3.47;;;;;;;;;;5112595;28;20306;-66
2022/09/11 05:16:51;;;;;;;3.30;2.60;;;;;;;;;;5112771;28;20619;-65
2022/09/11 05:19:19;;;;;;;5.03;3.80;;;;;;;;;;5112681;28;20227;-65
2022/09/11 05:21:47;;;;;;;3.90;3.50;;;;;;;;;;5112657;28;20290;-65
2022/09/11 05:24:14;;;;;;;7.40;3.53;;;;;;;;;;5113486;27;20231;-65
2022/09/11 05:26:41;;;;;;;5.67;3.47;;;;;;;;;;5130953;28;20290;-67
2022/09/11 05:29:13;;;;;;;3.90;3.17;;;;;;;;;;5111878;28;20298;-65
2022/09/11 05:31:40;;;;;;;6.67;3.87;;;;;;;;;;5104672;28;20254;-65
2022/09/11 05:34:07;;;;;;;6.83;3.70;;;;;;;;;;5112469;28;20716;-66
2022/09/11 05:36:35;;;;;;;5.83;4.00;;;;;;;;;;5112567;28;20291;-67
2022/09/11 05:39:03;;;;;;;5.30;3.33;;;;;;;;;;5112586;28;20195;-65
2022/09/11 05:41:31;;;;;;;9.97;3.93;;;;;;;;;;5113084;27;20290;-65
2022/09/11 05:43:58;;;;;;;3.97;3.17;;;;;;;;;;5104981;28;20263;-65
2022/09/11 05:46:25;;;;;;;5.10;3.73;;;;;;;;;;5111741;28;20881;-64
2022/09/11 05:48:53;;;;;;;6.70;3.77;;;;;;;;;;5112319;28;20195;-65
2022/09/11 05:51:21;;;;;;;4.10;3.70;;;;;;;;;;5130118;28;20303;-66
2022/09/11 05:53:52;;;;;;;4.93;4.20;;;;;;;;;;5112161;28;20319;-66
2022/09/11 05:56:21;;;;;;;4.60;3.67;;;;;;;;;;5112021;28;20318;-66
2022/09/11 05:58:51;;;;;;;5.70;3.90;;;;;;;;;;5130561;27;20221;-65
2022/09/11 06:01:20;;;;;;;6.13;4.30;;;;;;;;;;5111284;28;20554;-65
2022/09/11 06:03:48;;;;;;;8.70;4.30;;;;;;;;;;5112382;28;20223;-64
2022/09/11 06:06:16;;;;;;;4.37;3.97;;;;;;;;;;5112278;28;20653;-64
2022/09/11 06:08:44;;;;;;;6.77;4.17;;;;;;;;;;5130380;28;20437;-65
2022/09/11 06:11:12;;;;;;;4.10;3.73;;;;;;;;;;5112252;28;20310;-67
2022/09/11 06:13:45;;;;;;;6.10;3.97;;;;;;;;;;5112055;28;20730;-66
2022/09/11 06:16:17;;;;;;;7.43;4.60;;;;;;;;;;5112456;28;20242;-66
2022/09/11 06:18:48;;;;;;;6.07;4.17;;;;;;;;;;5130225;28;20206;-66
2022/09/11 06:21:18;;;;;;;4.83;3.80;;;;;;;;;;5112416;28;20661;-66
2022/09/11 06:23:50;;;;;;;5.20;3.77;;;;;;;;;;5111778;28;20315;-66
2022/09/11 06:26:20;;;;;;;5.47;3.70;;;;;;;;;;5111796;28;20661;-65
2022/09/11 06:28:48;;;;;;;4.60;3.60;;;;;;;;;;5133447;27;20640;-65
2022/09/11 06:31:16;;;;;;;5.53;4.20;;;;;;;;;;5115641;27;20223;-65
2022/09/11 06:33:44;;;;;;;5.47;3.90;;;;;;;;;;5116562;27;20227;-66
2022/09/11 06:36:16;;;;;;;4.00;3.70;;;;;;;;;;5116121;27;20227;-66
2022/09/11 06:38:44;;;;;;;6.63;3.67;;;;;;;;;;5116143;27;20290;-66
2022/09/11 06:41:13;;;;;;;4.97;3.60;;;;;;;;;;5115509;27;20215;-66
2022/09/11 06:43:41;;;;;;;4.23;3.33;;;;;;;;;;5115682;27;20283;-65
2022/09/11 06:46:13;;;;;;;5.07;3.47;;;;;;;;;;5115574;27;20222;-66
2022/09/11 06:48:45;;;;;;;4.80;3.80;;;;;;;;;;5115038;27;20260;-66
2022/09/11 06:51:13;;;;;;;3.90;3.60;;;;;;;;;;5115105;27;20298;-66
2022/09/11 06:53:40;;;;;;;5.77;4.13;;;;;;;;;;5115587;27;20302;-66
2022/09/11 06:56:11;;;;;;;5.97;3.97;;;;;;;;;;5115321;27;20199;-66
2022/09/11 06:58:39;;;;;;;4.83;4.27;;;;;;;;;;5115735;27;20199;-66
2022/09/11 07:01:09;;;;;;;5.13;4.60;;;;;;;;;;5115731;27;20294;-65
2022/09/11 07:03:37;;;;;;;5.35;4.50;;;;;;;;;;5116327;27;20641;-67
2022/09/11 07:06:05;;;;;;;5.83;4.03;;;;;;;;;;5116038;27;20663;-68
2022/09/11 07:08:33;;;;;;;7.27;4.27;;;;;;;;;;5136079;27;20202;-64
2022/09/11 07:11:03;;;;;;;4.67;4.13;;;;;;;;;;5136403;27;20207;-64
2022/09/11 07:13:33;;;;;;;5.10;4.30;;;;;;;;;;5135320;27;20939;-66
2022/09/11 07:16:08;;;;;;;7.33;4.67;;;;;;;;;;5136527;27;20235;-65
2022/09/11 07:18:43;;;;;;;4.90;4.50;;;;;;;;;;5135695;27;20290;-65
2022/09/11 07:21:15;;;;;;;4.70;4.13;;;;;;;;;;5135694;27;20293;-65
2022/09/11 07:23:45;;;;;;;6.93;4.60;;;;;;;;;;5117274;27;20238;-65
2022/09/11 07:26:12;;;;;;;5.70;4.47;;;;;;;;;;5114995;27;20625;-64
2022/09/11 07:28:40;;;;;;;7.50;5.10;;;;;;;;;;5114419;27;20283;-66
2022/09/11 07:31:09;;;;;;;7.23;5.17;;;;;;;;;;5132632;27;20203;-66
2022/09/11 07:33:44;;;;;;;5.93;5.10;;;;;;;;;;5114784;27;20219;-66
2022/09/11 07:36:13;;;;;;;7.10;5.60;;;;;;;;;;5114309;27;20285;-66
2022/09/11 07:38:41;;;;;;;7.93;5.20;;;;;;;;;;5113987;27;20286;-68
2022/09/11 07:41:09;;;;;;;7.50;5.23;;;;;;;;;;5114573;27;20721;-66
2022/09/11 07:43:37;;;;;;;7.93;5.47;;;;;;;;;;5114139;27;20655;-65
2022/09/11 07:46:05;;;;;;;5.70;5.13;;;;;;;;;;5114310;27;20203;-67
2022/09/11 07:48:33;;;;;;;5.95;5.15;;;;;;;;;;5114537;27;20569;-66
2022/09/11 07:51:01;;;;;;;5.50;4.90;;;;;;;;;;5114085;27;20286;-65
2022/09/11 07:53:31;;;;;;;5.38;4.80;;;;;;;;;;5113561;27;20229;-66
2022/09/11 07:56:02;;;;;;;5.00;4.60;;;;;;;;;;5113951;27;20199;-66
2022/09/11 07:58:37;;;;;;;6.93;4.93;;;;;;;;;;5132742;27;20207;-66
2022/09/11 08:01:08;;;;;;;5.30;4.90;;;;;;;;;;5114087;27;20282;-65
2022/09/11 08:03:36;;;;;;;7.20;5.38;;;;;;;;;;5114092;27;20234;-66
2022/09/11 08:06:04;;;;;;;5.63;5.00;;;;;;;;;;5113314;27;20291;-65
2022/09/11 08:08:32;;;;;;;5.95;5.40;;;;;;;;;;5114152;27;20290;-65
2022/09/11 08:11:07;;;;;;;6.22;4.65;;;;;;;;;;5116125;27;20225;-65
2022/09/11 08:13:34;;;;;;;5.30;4.90;;;;;;;;;;5113875;27;20312;-66
2022/09/11 08:16:02;;;;;;;4.75;4.35;;;;;;;;;;5130493;27;20235;-65
2022/09/11 08:18:29;;;;;;;5.40;5.00;;;;;;;;;;5134558;27;20303;-65
2022/09/11 08:21:04;;;;;;;5.45;4.95;;;;;;;;;;5134734;27;20627;-65
2022/09/11 08:23:35;;;;;;;6.53;5.80;;;;;;;;;;5118011;27;20263;-66
2022/09/11 08:26:07;;;;;;;5.50;5.00;;;;;;;;;;5110522;27;20210;-66
2022/09/11 08:28:35;;;;;;;5.40;4.90;;;;;;;;;;5110959;27;20234;-65
2022/09/11 08:31:04;;;;;;;5.68;5.18;;;;;;;;;;5114017;27;20235;-64
2022/09/11 08:33:32;;;;;;;6.40;5.90;;;;;;;;;;5110345;28;20729;-66
2022/09/11 08:36:01;;;;;;;5.47;4.97;;;;;;;;;;5093027;28;20200;-66
2022/09/11 08:38:28;;;;;;;4.40;4.00;;;;;;;;;;5093495;28;20235;-65
2022/09/11 08:40:57;;;;;;;4.68;4.30;;;;;;;;;;5093360;28;20204;-64
2022/09/11 08:43:31;;;;;;;4.93;4.43;;;;;;;;;;5093610;28;20294;-65
2022/09/11 08:46:03;;;;;;;4.68;4.28;;;;;;;;;;5093417;28;20757;-65
2022/09/11 08:48:43;;;;;;;4.35;4.05;;;;;;;;;;5099463;27;20554;-65
2022/09/11 08:51:15;;;;;;;5.07;4.65;;;;;;;;;;5113918;27;20301;-65
2022/09/11 08:53:44;;;;;;;4.72;4.32;;;;;;;;;;5118125;27;20261;-67
2022/09/11 08:56:16;;;;;;;4.75;4.35;;;;;;;;;;5122254;27;20199;-66
2022/09/11 08:59:13;;;;;;;6.53;5.05;;;;;;;;;;5112918;27;20204;-64
2022/09/11 09:02:02;;;;;;;6.18;5.57;;;;;;;;;;5097334;27;20211;-66
2022/09/11 09:04:41;;;;;;;5.82;5.32;;;;;;;;;;5113491;28;20215;-66
2022/09/11 09:07:28;;;;;;;6.30;5.13;;;;;;;;;;5131196;27;20283;-65
2022/09/11 09:10:14;;;;;;;5.60;5.03;;;;;;;;;;5133986;27;20568;-66
2022/09/11 09:12:54;;;;;;;6.25;5.65;;;;;;;;;;5133906;27;20325;-65
2022/09/11 09:15:22;;;;;;;5.80;5.30;;;;;;;;;;5133610;27;20274;-65
2022/09/11 09:17:59;;;;;;;5.40;4.90;;;;;;;;;;5134721;27;20195;-65
2022/09/11 09:20:33;;;;;;;7.47;6.80;;;;;;;;;;5133976;27;20222;-65
2022/09/11 09:23:20;;;;;;;6.75;6.10;;;;;;;;;;5121929;28;20227;-65
2022/09/11 09:25:51;;;;;;;7.35;6.65;;;;;;;;;;5129281;28;20291;-65
2022/09/11 09:28:36;;;;;;;6.00;5.50;;;;;;;;;;5112345;28;20211;-65
2022/09/11 09:31:06;;;;;;;6.28;5.78;;;;;;;;;;5112783;28;20282;-65
2022/09/11 09:33:38;;;;;;;7.35;6.75;;;;;;;;;;5112859;28;20245;-65
2022/09/11 09:36:32;;;;;;;5.90;5.40;;;;;;;;;;5112813;28;20228;-66
2022/09/11 09:39:01;;;;;;;5.45;4.95;;;;;;;;;;5127569;27;20226;-66
2022/09/11 09:41:28;;;;;;;5.97;5.25;;;;;;;;;;5092489;28;20299;-66
2022/09/11 09:44:11;;;;;;;5.50;5.00;;;;;;;;;;5092580;28;20270;-65
2022/09/11 09:46:47;;;;;;;7.80;5.38;;;;;;;;;;5093118;28;20298;-65
2022/09/11 09:49:22;;;;;;;6.00;5.50;;;;;;;;;;5093077;28;20236;-66
2022/09/11 09:51:50;;;;;;;6.03;5.53;;;;;;;;;;5092710;28;20311;-65
2022/09/11 09:54:19;;;;;;;5.82;5.32;;;;;;;;;;5127718;28;20314;-65
2022/09/11 09:56:52;;;;;;;6.68;5.88;;;;;;;;;;5113407;28;20677;-65
2022/09/11 09:59:22;;;;;;;6.38;5.78;;;;;;;;;;5113169;28;20295;-67
2022/09/11 10:01:53;;;;;;;6.45;5.95;;;;;;;;;;5114568;27;20636;-65
2022/09/11 10:04:23;;;;;;;6.40;5.80;;;;;;;;;;5115662;27;20228;-65
2022/09/11 10:06:51;;;;;;;6.15;5.25;;;;;;;;;;5115826;27;20294;-65
2022/09/11 10:09:23;;;;;;;6.28;5.68;;;;;;;;;;5116327;27;20267;-66
2022/09/11 10:11:52;;;;;;;5.65;5.22;;;;;;;;;;5115991;27;20199;-67
2022/09/11 10:14:20;;;;;;;5.82;5.32;;;;;;;;;;5134226;27;20269;-66
2022/09/11 10:17:18;;;;;;;5.78;5.28;;;;;;;;;;5118938;27;20466;-66
2022/09/11 10:19:46;;;;;;;7.38;5.55;;;;;;;;;;5115825;27;20227;-66
2022/09/11 10:22:22;;;;;;;6.03;5.40;;;;;;;;;;5115848;27;20207;-66
2022/09/11 10:25:05;;;;;;;5.65;5.15;;;;;;;;;;5115590;27;20234;-66
2022/09/11 10:27:40;;;;;;;6.68;6.07;;;;;;;;;;5111605;27;20245;-67
2022/09/11 10:30:23;;;;;;;6.03;5.43;;;;;;;;;;5116408;27;20621;-65
2022/09/11 10:32:50;;;;;;;4.95;4.55;;;;;;;;;;5095154;28;20228;-65
2022/09/11 10:35:17;;;;;;;6.15;5.65;;;;;;;;;;5095377;28;20295;-65
2022/09/11 10:37:45;;;;;;;6.28;5.40;;;;;;;;;;5095110;28;20287;-66
2022/09/11 10:40:21;;;;;;;5.80;5.05;;;;;;;;;;5120896;27;20558;-65
2022/09/11 10:42:50;;;;;;;5.25;4.85;;;;;;;;;;5114548;27;20859;-66
2022/09/11 10:45:18;;;;;;;6.95;6.35;;;;;;;;;;5115422;27;20295;-65
2022/09/11 10:47:45;;;;;;;5.50;5.00;;;;;;;;;;5115536;27;20242;-65
2022/09/11 10:50:16;;;;;;;6.03;5.32;;;;;;;;;;5133860;27;20286;-66
2022/09/11 10:53:06;;;;;;;5.40;4.90;;;;;;;;;;5114946;27;20239;-66
2022/09/11 10:55:35;;;;;;;4.90;4.30;;;;;;;;;;5101356;27;20286;-65
2022/09/11 10:58:13;;;;;;;4.30;3.90;;;;;;;;;;5115220;27;20221;-65
2022/09/11 11:00:41;;;;;;;4.50;4.20;;;;;;;;;;5124792;27;20206;-66
2022/09/11 11:03:24;;;;;;;7.25;6.53;;;;;;;;;;5114992;27;20322;-65
2022/09/11 11:06:10;;;;;;;4.40;4.10;;;;;;;;;;5129930;27;20736;-66
2022/09/11 11:08:56;;;;;;;5.28;4.85;;;;;;;;;;5135597;27;20286;-65
2022/09/11 11:11:27;;;;;;;4.60;4.28;;;;;;;;;;5135664;27;20277;-65
2022/09/11 11:14:10;;;;;;;4.20;3.90;;;;;;;;;;5134316;27;20239;-65
2022/09/11 11:16:41;;;;;;;4.47;4.18;;;;;;;;;;5135188;27;20207;-65
2022/09/11 11:19:27;;;;;;;4.53;3.95;;;;;;;;;;5135269;27;20279;-65
2022/09/11 11:22:13;;;;;;;4.20;3.80;;;;;;;;;;5127129;27;20544;-65
2022/09/11 11:24:45;;;;;;;4.47;4.00;;;;;;;;;;5114696;27;20277;-65
2022/09/11 11:27:29;;;;;;;6.15;4.57;;;;;;;;;;5113941;27;20241;-66
2022/09/11 11:30:18;;;;;;;3.65;3.35;;;;;;;;;;5114667;27;20283;-66
2022/09/11 11:33:08;;;;;;;4.00;3.45;;;;;;;;;;5114757;27;20268;-65
2022/09/11 11:36:05;;;;;;;5.05;3.60;;;;;;;;;;5121944;27;20208;-68
2022/09/11 11:38:33;;;;;;;4.20;3.80;;;;;;;;;;5060114;27;20248;-65
2022/09/11 11:41:06;;;;;;;3.75;3.45;;;;;;;;;;5114696;27;20200;-66
2022/09/11 11:43:36;;;;;;;3.67;3.38;;;;;;;;;;5114078;27;20223;-65
2022/09/11 11:46:19;;;;;;;3.55;3.35;;;;;;;;;;5114286;27;20290;-65
2022/09/11 11:49:05;;;;;;;3.95;3.50;;;;;;;;;;5114303;27;20298;-65
2022/09/11 11:51:38;;;;;;;3.30;3.08;;;;;;;;;;5114267;27;20286;-65
2022/09/11 11:54:16;;;;;;;3.33;3.13;;;;;;;;;;5113947;27;20230;-65
2022/09/11 11:56:57;;;;;;;3.63;3.33;;;;;;;;;;5108961;27;20199;-66
2022/09/11 11:59:30;;;;;;;3.67;3.38;;;;;;;;;;5112719;27;20712;-66
2022/09/11 12:02:10;;;;;;;3.92;3.63;;;;;;;;;;5114215;27;20203;-64
2022/09/11 12:04:38;;;;;;;4.55;4.15;;;;;;;;;;5114192;27;20756;-65
2022/09/11 12:07:12;;;;;;;4.00;3.70;;;;;;;;;;5131639;27;20290;-66
2022/09/11 12:09:45;;;;;;;4.53;4.13;;;;;;;;;;5114136;27;20254;-67
2022/09/11 12:12:12;;;;;;;4.60;4.20;;;;;;;;;;5114315;27;20203;-66
2022/09/11 12:14:47;;;;;;;4.47;4.07;;;;;;;;;;5113691;27;20223;-66
2022/09/11 12:17:19;;;;;;;3.67;3.38;;;;;;;;;;5113597;27;20199;-65
2022/09/11 12:20:06;;;;;;;3.80;3.50;;;;;;;;;;5113944;27;20210;-66
2022/09/11 12:22:37;;;;;;;4.20;3.80;;;;;;;;;;5113576;27;20205;-66
2022/09/11 12:25:08;;;;;;;3.60;3.30;;;;;;;;;;5113281;27;20448;-63
2022/09/11 12:27:36;;;;;;;3.90;3.50;;;;;;;;;;5112908;27;20196;-65
2022/09/11 12:30:20;;;;;;;4.55;3.75;;;;;;;;;;5113836;27;20236;-66
2022/09/11 12:32:52;;;;;;;4.07;3.78;;;;;;;;;;5113514;27;20262;-66
2022/09/11 12:35:19;;;;;;;3.90;3.60;;;;;;;;;;5113314;27;20665;-65
2022/09/11 12:37:51;;;;;;;3.30;3.10;;;;;;;;;;5113173;27;20283;-64
2022/09/11 12:40:26;;;;;;;3.20;3.00;;;;;;;;;;5131879;27;20271;-65
2022/09/11 12:43:17;;;;;;;2.88;2.78;;;;;;;;;;5113036;27;20223;-65
2022/09/11 12:45:47;;;;;;;4.07;2.60;;;;;;;;;;5076164;27;20252;-65
2022/09/11 12:48:16;;;;;;;2.97;2.65;;;;;;;;;;5131574;27;20293;-65
2022/09/11 12:50:51;;;;;;;3.25;2.95;;;;;;;;;;5134480;27;20230;-65
2022/09/11 12:53:22;;;;;;;2.75;2.55;;;;;;;;;;5134085;27;20305;-66
2022/09/11 12:55:58;;;;;;;3.08;2.78;;;;;;;;;;5127123;27;20242;-65
2022/09/11 12:58:44;;;;;;;2.67;2.47;;;;;;;;;;5112493;27;20209;-66
2022/09/11 13:01:14;;;;;;;2.55;2.35;;;;;;;;;;5131897;27;20199;-65
2022/09/11 13:03:55;;;;;;;2.38;2.28;;;;;;;;;;5113255;27;20227;-65
2022/09/11 13:06:23;;;;;;;2.60;2.40;;;;;;;;;;5112930;27;20286;-65
2022/09/11 13:08:59;;;;;;;2.40;2.30;;;;;;;;;;5096256;27;20213;-66
2022/09/11 13:11:52;;;;;;;2.92;2.35;;;;;;;;;;5112698;28;20301;-65
2022/09/11 13:14:29;;;;;;;2.90;2.40;;;;;;;;;;5108741;28;20338;-65
2022/09/11 13:17:00;;;;;;;2.72;2.53;;;;;;;;;;5112523;28;20206;-64
2022/09/11 13:19:34;;;;;;;2.95;2.75;;;;;;;;;;5112591;28;20242;-67
2022/09/11 13:22:18;;;;;;;2.65;2.50;;;;;;;;;;5131595;27;20263;-65
2022/09/11 13:24:45;;;;;;;2.60;2.40;;;;;;;;;;5096944;28;20270;-66
2022/09/11 13:27:16;;;;;;;2.72;2.53;;;;;;;;;;5111711;28;20274;-65
2022/09/11 13:29:47;;;;;;;2.47;2.25;;;;;;;;;;5130732;27;20667;-66
2022/09/11 13:32:15;;;;;;;2.58;2.38;;;;;;;;;;5129775;28;20282;-64
2022/09/11 13:34:44;;;;;;;2.47;2.28;;;;;;;;;;5129532;28;20282;-64
2022/09/11 13:37:21;;;;;;;3.20;2.22;;;;;;;;;;5133048;27;20221;-65
2022/09/11 13:39:49;;;;;;;2.50;2.35;;;;;;;;;;5117096;27;20757;-64
2022/09/11 13:42:19;;;;;;;2.80;2.60;;;;;;;;;;5117246;27;20575;-66
2022/09/11 13:44:48;;;;;;;2.40;2.30;;;;;;;;;;5116668;27;20696;-66
2022/09/11 13:47:16;;;;;;;2.47;2.30;;;;;;;;;;5116533;27;20684;-66
2022/09/11 13:49:44;;;;;;;2.70;2.50;;;;;;;;;;5116674;27;20207;-66
2022/09/11 13:52:12;;;;;;;3.08;2.88;;;;;;;;;;5117009;27;20290;-65
2022/09/11 13:54:41;;;;;;;2.83;2.70;;;;;;;;;;5117068;27;20235;-65
2022/09/11 13:57:16;;;;;;;3.33;2.55;;;;;;;;;;5115855;27;20206;-64
2022/09/11 13:59:44;;;;;;;3.25;3.05;;;;;;;;;;5110599;27;20732;-64
2022/09/11 14:02:15;;;;;;;4.72;3.10;;;;;;;;;;5117705;27;20252;-66
2022/09/11 14:04:43;;;;;;;3.00;2.80;;;;;;;;;;5117026;27;20813;-66
2022/09/11 14:07:29;;;;;;;4.40;2.72;;;;;;;;;;5116693;27;20517;-65
2022/09/11 14:10:01;;;;;;;3.28;2.78;;;;;;;;;;5116603;27;20203;-65
2022/09/11 14:12:28;;;;;;;2.60;2.50;;;;;;;;;;5116918;27;20211;-65
2022/09/11 14:14:57;;;;;;;2.80;2.60;;;;;;;;;;5116614;27;20264;-65
2022/09/11 14:17:25;;;;;;;2.90;2.58;;;;;;;;;;5116211;27;20235;-65
2022/09/11 14:19:54;;;;;;;2.97;2.53;;;;;;;;;;5115929;27;20219;-65
2022/09/11 14:22:29;;;;;;;2.85;2.65;;;;;;;;;;5116990;27;20227;-64
2022/09/11 14:25:17;;;;;;;2.85;2.53;;;;;;;;;;5115946;27;20298;-65
2022/09/11 14:27:44;;;;;;;2.63;2.42;;;;;;;;;;5116535;27;20238;-66
2022/09/11 14:30:24;;;;;;;3.00;2.45;;;;;;;;;;5134126;27;20298;-65
2022/09/11 14:33:10;;;;;;;2.88;2.30;;;;;;;;;;5134210;27;20321;-65
2022/09/11 14:35:37;;;;;;;2.92;2.40;;;;;;;;;;5115462;27;20290;-66
2022/09/11 14:38:04;;;;;;;2.58;2.38;;;;;;;;;;5115870;27;20684;-65
2022/09/11 14:40:32;;;;;;;2.63;2.42;;;;;;;;;;5115593;27;20657;-66
2022/09/11 14:42:59;;;;;;;2.65;2.45;;;;;;;;;;5115393;27;20830;-63
2022/09/11 14:45:26;;;;;;;3.03;2.67;;;;;;;;;;5118647;27;20671;-65
2022/09/11 14:47:54;;;;;;;2.42;2.33;;;;;;;;;;5134266;27;20445;-64
2022/09/11 14:50:23;;;;;;;2.70;2.50;;;;;;;;;;5136198;27;20202;-66
2022/09/11 14:52:50;;;;;;;4.03;2.83;;;;;;;;;;5136353;27;20234;-65
2022/09/11 14:55:19;;;;;;;2.72;2.63;;;;;;;;;;5121383;27;20314;-65
2022/09/11 14:57:46;;;;;;;2.97;2.78;;;;;;;;;;5114644;27;20256;-66
2022/09/11 15:00:15;;;;;;;3.88;2.78;;;;;;;;;;5114911;27;20199;-65
2022/09/11 15:02:42;;;;;;;3.10;2.80;;;;;;;;;;5120597;27;20234;-66
2022/09/11 15:05:14;;;;;;;3.00;2.80;;;;;;;;;;5134899;27;20651;-65
2022/09/11 15:07:44;;;;;;;2.97;2.78;;;;;;;;;;5135239;27;20243;-65
2022/09/11 15:10:12;;;;;;;3.10;2.90;;;;;;;;;;5136035;27;20245;-65